createdAt,value
2018-12-14T00:00:35.163Z,99988.33
2018-12-14T00:03:39.785Z,99989.38
2018-12-14T00:06:44.330Z,99985.87
2018-12-14T00:09:48.897Z,99982.75
2018-12-14T00:12:53.686Z,99979.94
2018-12-14T00:15:58.275Z,99976.95
2018-12-14T00:19:02.829Z,99979.53
2018-12-14T00:22:07.565Z,99985.05
2018-12-14T00:25:12.195Z,99985.20
2018-12-14T00:28:16.730Z,99987.46
2018-12-14T00:31:21.418Z,99990.15
2018-12-14T00:34:26.022Z,99989.19
2018-12-14T00:37:30.492Z,99991.84
2018-12-14T00:40:35.001Z,99991.77
2018-12-14T00:43:39.607Z,99992.87
2018-12-14T00:46:45.162Z,99991.94
2018-12-14T00:49:49.726Z,100000.46
2018-12-14T00:52:54.384Z,100006.97
2018-12-14T00:55:58.939Z,100010.75
2018-12-14T00:59:03.551Z,100010.88
2018-12-14T01:02:11.783Z,100012.11
2018-12-14T01:05:16.349Z,100013.59
2018-12-14T01:08:20.996Z,100017.38
2018-12-14T01:11:25.557Z,100011.44
2018-12-14T01:14:30.084Z,100016.24
2018-12-14T01:17:34.729Z,100022.25
2018-12-14T01:20:39.318Z,100018.06
2018-12-14T01:23:44.025Z,100020.56
2018-12-14T01:26:48.628Z,100023.31
2018-12-14T01:29:53.225Z,100024.02
2018-12-14T01:32:57.809Z,100027.27
2018-12-14T01:36:02.505Z,100027.36
2018-12-14T01:39:08.685Z,100027.66
2018-12-14T01:42:13.390Z,100023.19
2018-12-14T01:45:18.151Z,100027.30
2018-12-14T01:48:22.827Z,100021.86
2018-12-14T01:51:27.324Z,100020.16
2018-12-14T01:54:31.875Z,100017.71
2018-12-14T01:57:36.944Z,100014.50
2018-12-14T02:00:41.612Z,100009.32
2018-12-14T02:03:46.145Z,100010.61
2018-12-14T02:06:50.709Z,100005.04
2018-12-14T02:09:55.561Z,100005.14
2018-12-14T02:13:00.187Z,100003.02
2018-12-14T02:16:04.778Z,100009.45
2018-12-14T02:19:09.561Z,100014.09
2018-12-14T02:22:14.061Z,100000.73
2018-12-14T02:25:18.601Z,100004.74
2018-12-14T02:28:23.236Z,100003.22
2018-12-14T02:31:27.893Z,100013.30
2018-12-14T02:34:32.639Z,100010.34
2018-12-14T02:37:37.225Z,100005.34
2018-12-14T02:40:41.925Z,100007.98
2018-12-14T02:43:46.585Z,100015.22
2018-12-14T02:46:51.081Z,100007.27
2018-12-14T02:49:55.636Z,100009.09
2018-12-14T02:53:00.262Z,100016.24
2018-12-14T02:56:04.800Z,100008.22
2018-12-14T02:59:09.494Z,100010.51
2018-12-14T03:02:14.227Z,100000.33
2018-12-14T03:05:18.870Z,100007.88
2018-12-14T03:08:23.399Z,100005.63
2018-12-14T03:11:27.954Z,100003.83
2018-12-14T03:14:32.808Z,99993.06
2018-12-14T03:17:37.763Z,99995.02
2018-12-14T03:20:42.521Z,99993.80
2018-12-14T03:23:47.065Z,99993.27
2018-12-14T03:26:51.640Z,100000.22
2018-12-14T03:29:56.292Z,100000.22
2018-12-14T03:33:00.867Z,99999.30
2018-12-14T03:36:05.541Z,99999.03
2018-12-14T03:39:10.284Z,100004.80
2018-12-14T03:42:14.784Z,100004.30
2018-12-14T03:45:23.046Z,100001.56
2018-12-14T03:48:27.608Z,100000.75
2018-12-14T03:51:32.246Z,100001.02
2018-12-14T03:54:37.025Z,100000.65
2018-12-14T03:57:41.603Z,99996.13
2018-12-14T04:00:46.509Z,99996.77
2018-12-14T04:03:51.253Z,100008.90
2018-12-14T04:06:55.878Z,100009.55
2018-12-14T04:10:00.403Z,100011.33
2018-12-14T04:13:05.158Z,100016.27
2018-12-14T04:16:09.722Z,100013.08
2018-12-14T04:19:14.384Z,100012.29
2018-12-14T04:22:19.018Z,100013.81
2018-12-14T04:25:24.266Z,100015.53
2018-12-14T04:28:28.885Z,100017.17
2018-12-14T04:31:33.593Z,100018.18
2018-12-14T04:34:38.346Z,100021.17
2018-12-14T04:37:42.976Z,100024.39
2018-12-14T04:40:47.545Z,100022.45
2018-12-14T04:43:57.113Z,100015.14
2018-12-14T04:47:01.648Z,100026.25
2018-12-14T04:50:06.800Z,100026.63
2018-12-14T04:53:11.497Z,100025.40
2018-12-14T04:56:16.309Z,100026.09
2018-12-14T04:59:20.912Z,100026.27
2018-12-14T05:02:25.563Z,100021.84
2018-12-14T05:05:30.571Z,100028.25
2018-12-14T05:08:35.063Z,100027.10
2018-12-14T05:11:40.071Z,100026.94
2018-12-14T05:14:45.377Z,100031.28
2018-12-14T05:17:50.024Z,100035.10
2018-12-14T05:20:54.556Z,100027.10
2018-12-14T05:23:59.152Z,100033.44
2018-12-14T05:27:03.944Z,100035.69
2018-12-14T05:30:09.420Z,100033.08
2018-12-14T05:33:14.443Z,100033.32
2018-12-14T05:36:19.166Z,100034.64
2018-12-14T05:39:23.850Z,100036.64
2018-12-14T05:42:28.381Z,100041.32
2018-12-14T05:45:32.864Z,100035.51
2018-12-14T05:48:37.538Z,100033.98
2018-12-14T05:51:42.132Z,100028.35
2018-12-14T05:54:46.755Z,100037.34
2018-12-14T05:57:51.476Z,100035.72
2018-12-14T06:00:56.109Z,100031.13
2018-12-14T06:04:00.883Z,100038.25
2018-12-14T06:07:05.726Z,100037.63
2018-12-14T06:10:12.781Z,100044.05
2018-12-14T06:13:17.292Z,100045.91
2018-12-14T06:16:22.037Z,100041.32
2018-12-14T06:19:26.546Z,100048.57
2018-12-14T06:22:31.159Z,100044.59
2018-12-14T06:25:35.861Z,100053.75
2018-12-14T06:28:40.431Z,100061.78
2018-12-14T06:31:45.052Z,100057.35
2018-12-14T06:34:49.510Z,100062.45
2018-12-14T06:37:54.077Z,100058.42
2018-12-14T06:40:58.735Z,100062.20
2018-12-14T06:44:03.429Z,100070.56
2018-12-14T06:47:07.973Z,100078.86
2018-12-14T06:50:12.555Z,100078.16
2018-12-14T06:53:17.304Z,100076.36
2018-12-14T06:56:22.031Z,100086.11
2018-12-14T06:59:26.710Z,100094.77
2018-12-14T07:02:31.749Z,100094.06
2018-12-14T07:05:36.374Z,100092.41
2018-12-14T07:08:41.052Z,100093.81
2018-12-14T07:11:45.594Z,100097.08
2018-12-14T07:14:50.519Z,100097.42
2018-12-14T07:17:55.352Z,100106.86
2018-12-14T07:21:00.382Z,100108.59
2018-12-14T07:24:05.088Z,100109.43
2018-12-14T07:27:09.825Z,100113.53
2018-12-14T07:30:14.404Z,100118.97
2018-12-14T07:33:19.036Z,100124.41
2018-12-14T07:36:23.671Z,100125.13
2018-12-14T07:39:34.885Z,100125.47
2018-12-14T07:42:39.497Z,100126.59
2018-12-14T07:45:44.155Z,100135.87
2018-12-14T07:48:48.609Z,100130.85
2018-12-14T07:51:53.116Z,100135.95
2018-12-14T07:54:57.821Z,100145.28
2018-12-14T07:58:02.541Z,100143.41
2018-12-14T08:01:07.753Z,100141.67
2018-12-14T08:04:12.710Z,100150.33
2018-12-14T08:07:17.424Z,100151.45
2018-12-14T08:10:22.480Z,100143.46
2018-12-14T08:13:27.040Z,100150.09
2018-12-14T08:16:31.630Z,100157.22
2018-12-14T08:19:36.148Z,100157.38
2018-12-14T08:22:41.094Z,100171.88
2018-12-14T08:25:45.891Z,100177.53
2018-12-14T08:28:50.502Z,100182.00
2018-12-14T08:31:55.061Z,100182.05
2018-12-14T08:34:59.622Z,100180.18
2018-12-14T08:38:04.430Z,100185.61
2018-12-14T08:41:09.165Z,100180.45
2018-12-14T08:44:13.772Z,100190.98
2018-12-14T08:47:18.435Z,100190.98
2018-12-14T08:50:23.249Z,100196.09
2018-12-14T08:53:28.333Z,100193.73
2018-12-14T08:56:32.949Z,100197.76
2018-12-14T08:59:37.619Z,100201.11
2018-12-14T09:02:42.178Z,100213.34
2018-12-14T09:05:46.733Z,100204.68
2018-12-14T09:08:52.557Z,100218.16
2018-12-14T09:11:57.274Z,100223.95
2018-12-14T09:15:01.842Z,100222.55
2018-12-14T09:18:06.517Z,100226.87
2018-12-14T09:21:11.131Z,100230.37
2018-12-14T09:24:16.560Z,100231.95
2018-12-14T09:27:21.204Z,100232.12
2018-12-14T09:30:25.782Z,100235.59
2018-12-14T09:33:30.563Z,100223.59
2018-12-14T09:36:35.207Z,100224.13
2018-12-14T09:39:39.655Z,100233.98
2018-12-14T09:42:44.138Z,100224.70
2018-12-14T09:45:48.806Z,100216.75
2018-12-14T09:48:53.535Z,100220.03
2018-12-14T09:51:58.174Z,100223.44
2018-12-14T09:55:02.736Z,100218.96
2018-12-14T09:58:08.929Z,100226.35
2018-12-14T10:01:14.460Z,100222.37
2018-12-14T10:04:19.255Z,100224.81
2018-12-14T10:07:24.084Z,100221.95
2018-12-14T10:10:28.833Z,100226.17
2018-12-14T10:13:33.688Z,100230.25
2018-12-14T10:16:38.524Z,100225.23
2018-12-14T10:19:43.124Z,100226.27
2018-12-14T10:22:47.661Z,100221.88
2018-12-14T10:25:52.129Z,100225.94
2018-12-14T10:28:56.799Z,100226.34
2018-12-14T10:32:01.296Z,100229.29
2018-12-14T10:35:07.949Z,100220.75
2018-12-14T10:38:12.625Z,100217.80
2018-12-14T10:41:17.368Z,100217.47
2018-12-14T10:44:21.960Z,100220.41
2018-12-14T10:47:26.617Z,100214.61
2018-12-14T10:50:38.676Z,100214.45
2018-12-14T10:53:37.891Z,100221.33
2018-12-14T10:56:42.652Z,100222.45
2018-12-14T10:59:47.294Z,100215.98
2018-12-14T11:02:52.113Z,100220.46
2018-12-14T11:05:56.706Z,100217.30
2018-12-14T11:09:01.395Z,100220.88
2018-12-14T11:12:06.072Z,100219.22
2018-12-14T11:15:10.842Z,100224.39
2018-12-14T11:18:15.443Z,100221.08
2018-12-14T11:21:20.200Z,100221.62
2018-12-14T11:24:24.798Z,100226.72
2018-12-14T11:27:29.509Z,100232.19
2018-12-14T11:30:34.121Z,100223.20
2018-12-14T11:33:38.744Z,100221.45
2018-12-14T11:36:43.247Z,100223.83
2018-12-14T11:39:47.878Z,100226.84
2018-12-14T11:42:52.494Z,100223.28
2018-12-14T11:45:57.107Z,100226.39
2018-12-14T11:49:01.702Z,100234.02
2018-12-14T11:52:06.487Z,100231.66
2018-12-14T11:55:11.919Z,100224.81
2018-12-14T11:58:17.777Z,100226.02
2018-12-14T12:01:22.580Z,100230.49
2018-12-14T12:04:27.140Z,100226.59
2018-12-14T12:07:31.737Z,100224.69
2018-12-14T12:10:36.343Z,100230.70
2018-12-14T12:13:41.107Z,100231.41
2018-12-14T12:16:45.908Z,100230.20
2018-12-14T12:19:50.365Z,100230.00
2018-12-14T12:22:54.988Z,100225.80
2018-12-14T12:25:59.713Z,100224.84
2018-12-14T12:29:04.229Z,100213.00
2018-12-14T12:32:08.765Z,100213.16
2018-12-14T12:35:13.438Z,100216.85
2018-12-14T12:38:18.081Z,100213.95
2018-12-14T12:41:22.805Z,100216.39
2018-12-14T12:44:33.326Z,100212.61
2018-12-14T12:47:34.118Z,100217.43
2018-12-14T12:50:38.670Z,100209.76
2018-12-14T12:53:43.458Z,100209.34
2018-12-14T12:56:48.067Z,100210.17
2018-12-14T12:59:52.727Z,100214.85
2018-12-14T13:02:57.323Z,100214.09
2018-12-14T13:06:01.920Z,100217.52
2018-12-14T13:09:07.591Z,100219.41
2018-12-14T13:12:12.365Z,100220.10
2018-12-14T13:15:17.015Z,100222.27
2018-12-14T13:18:23.386Z,100225.33
2018-12-14T13:21:28.200Z,100222.05
2018-12-14T13:24:32.971Z,100222.55
2018-12-14T13:27:37.618Z,100231.28
2018-12-14T13:30:42.568Z,100230.30
2018-12-14T13:33:47.272Z,100235.94
2018-12-14T13:36:51.803Z,100232.09
2018-12-14T13:39:56.444Z,100229.73
2018-12-14T13:43:01.057Z,100243.50
2018-12-14T13:46:05.676Z,100245.73
2018-12-14T13:49:10.805Z,100249.36
2018-12-14T13:52:15.563Z,100253.88
2018-12-14T13:55:20.109Z,100257.03
2018-12-14T13:58:24.801Z,100265.34
2018-12-14T14:01:29.489Z,100272.25
2018-12-14T14:04:35.910Z,100281.37
2018-12-14T14:07:40.744Z,100281.69
2018-12-14T14:10:45.316Z,100280.89
2018-12-14T14:13:49.865Z,100284.19
2018-12-14T14:16:54.802Z,100282.58
2018-12-14T14:19:59.439Z,100290.59
2018-12-14T14:23:03.969Z,100294.42
2018-12-14T14:26:08.714Z,100294.23
2018-12-14T14:29:13.301Z,100293.53
2018-12-14T14:32:17.906Z,100296.59
2018-12-14T14:35:22.716Z,100308.39
2018-12-14T14:38:27.279Z,100305.71
2018-12-14T14:41:31.876Z,100307.41
2018-12-14T14:44:36.604Z,100310.25
2018-12-14T14:47:41.335Z,100303.92
2018-12-14T14:50:46.447Z,100303.98
2018-12-14T14:53:51.039Z,100317.30
2018-12-14T14:56:55.701Z,100315.64
2018-12-14T15:00:00.388Z,100320.91
2018-12-14T15:03:05.158Z,100321.69
2018-12-14T15:06:09.869Z,100325.16
2018-12-14T15:09:14.762Z,100325.50
2018-12-14T15:12:19.383Z,100327.20
2018-12-14T15:15:23.990Z,100334.59
2018-12-14T15:18:28.600Z,100337.35
2018-12-14T15:21:33.360Z,100337.47
2018-12-14T15:24:37.979Z,100338.03
2018-12-14T15:27:42.609Z,100345.20
2018-12-14T15:30:47.407Z,100341.51
2018-12-14T15:33:52.348Z,100350.61
2018-12-14T15:36:57.142Z,100350.95
2018-12-14T15:40:01.728Z,100354.98
2018-12-14T15:43:06.416Z,100352.18
2018-12-14T15:46:11.065Z,100355.55
2018-12-14T15:49:15.752Z,100359.63
2018-12-14T15:52:20.452Z,100363.70
2018-12-14T15:55:25.126Z,100363.99
2018-12-14T15:58:29.746Z,100368.14
2018-12-14T16:01:34.357Z,100374.83
2018-12-14T16:04:38.923Z,100373.38
2018-12-14T16:07:43.496Z,100378.45
2018-12-14T16:10:48.062Z,100383.39
2018-12-14T16:13:52.649Z,100374.04
2018-12-14T16:16:57.188Z,100378.36
2018-12-14T16:20:02.098Z,100380.61
2018-12-14T16:23:09.283Z,100384.49
2018-12-14T16:26:14.217Z,100382.61
2018-12-14T16:29:18.848Z,100387.47
2018-12-14T16:32:23.505Z,100393.16
2018-12-14T16:35:28.202Z,100393.28
2018-12-14T16:38:32.746Z,100395.21
2018-12-14T16:41:37.352Z,100391.60
2018-12-14T16:44:42.126Z,100395.93
2018-12-14T16:47:46.707Z,100388.08
2018-12-14T16:50:51.367Z,100388.47
2018-12-14T16:54:06.479Z,100388.52
2018-12-14T16:57:11.044Z,100382.38
2018-12-14T17:00:15.683Z,100380.56
2018-12-14T17:03:20.272Z,100386.14
2018-12-14T17:06:24.998Z,100381.50
2018-12-14T17:09:29.605Z,100382.77
2018-12-14T17:15:50.477Z,100377.52
2018-12-14T17:18:55.076Z,100378.75
2018-12-14T17:21:59.625Z,100385.15
2018-12-14T17:25:04.437Z,100388.41
2018-12-14T17:28:09.012Z,100388.35
2018-12-14T17:31:13.519Z,100394.48
2018-12-14T17:34:18.090Z,100393.11
2018-12-14T17:37:22.670Z,100403.98
2018-12-14T17:40:27.206Z,100404.53
2018-12-14T17:43:31.751Z,100403.89
2018-12-14T17:46:36.439Z,100401.41
2018-12-14T17:49:41.042Z,100407.52
2018-12-14T17:52:45.626Z,100408.84
2018-12-14T17:55:50.199Z,100404.70
2018-12-14T17:58:54.738Z,100423.77
2018-12-14T18:01:59.338Z,100415.82
2018-12-14T18:05:04.087Z,100423.77
2018-12-14T18:08:08.623Z,100425.91
2018-12-14T18:11:13.121Z,100428.64
2018-12-14T18:14:17.707Z,100432.44
2018-12-14T18:17:22.451Z,100440.57
2018-12-14T18:20:27.059Z,100441.19
2018-12-14T18:23:31.733Z,100447.98
2018-12-14T18:26:36.401Z,100450.34
2018-12-14T18:29:40.953Z,100458.52
2018-12-14T18:32:45.540Z,100455.59
2018-12-14T18:35:50.249Z,100460.89
2018-12-14T18:38:54.801Z,100450.69
2018-12-14T18:41:59.324Z,100450.23
2018-12-14T18:45:04.292Z,100451.58
2018-12-14T18:48:08.874Z,100452.23
2018-12-14T18:51:13.410Z,100450.47
2018-12-14T18:54:18.079Z,100454.37
2018-12-14T18:57:22.700Z,100454.66
2018-12-14T19:00:28.161Z,100446.98
2018-12-14T19:03:32.702Z,100455.97
2018-12-14T19:06:37.256Z,100467.47
2018-12-14T19:09:41.831Z,100467.53
2018-12-14T19:12:46.365Z,100470.12
2018-12-14T19:15:51.054Z,100480.45
2018-12-14T19:18:55.592Z,100479.79
2018-12-14T19:22:00.242Z,100484.37
2018-12-14T19:25:05.785Z,100487.03
2018-12-14T19:28:10.353Z,100491.62
2018-12-14T19:31:15.069Z,100488.32
2018-12-14T19:34:19.632Z,100497.70
2018-12-14T19:37:24.259Z,100501.95
2018-12-14T19:40:28.830Z,100508.20
2018-12-14T19:43:33.301Z,100500.11
2018-12-14T19:49:52.448Z,100508.02
2018-12-14T19:52:57.029Z,100512.55
2018-12-14T19:56:01.546Z,100514.76
2018-12-14T19:59:06.216Z,100515.59
2018-12-14T20:02:11.062Z,100514.31
2018-12-14T20:05:15.896Z,100516.16
2018-12-14T20:08:20.633Z,100516.53
2018-12-14T20:11:25.258Z,100522.45
2018-12-14T20:14:30.050Z,100525.55
2018-12-14T20:17:34.626Z,100518.86
2018-12-14T20:20:39.254Z,100520.41
2018-12-14T20:23:43.930Z,100520.52
2018-12-14T20:26:48.766Z,100522.45
2018-12-14T20:29:53.383Z,100517.75
2018-12-14T20:32:58.511Z,100524.95
2018-12-14T20:36:03.202Z,100529.53
2018-12-14T20:39:08.715Z,100528.02
2018-12-14T20:42:13.414Z,100531.46
2018-12-14T20:45:18.106Z,100532.63
2018-12-14T20:48:22.769Z,100539.95
2018-12-14T20:51:27.446Z,100542.61
2018-12-14T20:54:32.056Z,100539.77
2018-12-14T20:57:37.191Z,100540.95
2018-12-14T21:00:41.815Z,100538.29
2018-12-14T21:03:46.517Z,100532.08
2018-12-14T21:06:51.092Z,100536.99
2018-12-14T21:09:55.741Z,100536.47
2018-12-14T21:13:00.318Z,100534.77
2018-12-14T21:16:04.977Z,100533.33
2018-12-14T21:19:09.714Z,100538.09
2018-12-14T21:22:15.331Z,100534.95
2018-12-14T21:25:20.249Z,100539.39
2018-12-14T21:28:25.025Z,100539.66
2018-12-14T21:31:29.599Z,100530.48
2018-12-14T21:34:34.160Z,100534.38
2018-12-14T21:37:38.795Z,100534.65
2018-12-14T21:40:43.401Z,100535.15
2018-12-14T21:43:48.080Z,100527.64
2018-12-14T21:46:52.854Z,100534.77
2018-12-14T21:53:14.649Z,100530.48
2018-12-14T21:56:19.585Z,100536.78
2018-12-14T21:59:24.290Z,100528.89
2018-12-14T22:02:29.158Z,100528.25
2018-12-14T22:05:34.118Z,100531.63
2018-12-14T22:08:38.804Z,100532.34
2018-12-14T22:11:43.399Z,100534.23
2018-12-14T22:14:48.014Z,100536.92
2018-12-14T22:17:53.136Z,100542.50
2018-12-14T22:20:57.964Z,100535.41
2018-12-14T22:24:02.629Z,100537.91
2018-12-14T22:27:07.360Z,100532.80
2018-12-14T22:30:12.442Z,100533.14
2018-12-14T22:33:17.034Z,100533.14
2018-12-14T22:36:21.722Z,100531.44
2018-12-14T22:39:26.807Z,100526.13
2018-12-14T22:42:31.698Z,100517.57
2018-12-14T22:45:36.380Z,100533.21
2018-12-14T22:48:41.036Z,100526.28
2018-12-14T22:51:45.610Z,100522.56
2018-12-14T22:54:50.103Z,100521.66
2018-12-14T22:57:54.833Z,100519.19
2018-12-14T23:00:59.420Z,100524.54
2018-12-14T23:04:04.413Z,100532.30
2018-12-14T23:07:09.158Z,100531.21
2018-12-14T23:10:13.661Z,100541.70
2018-12-14T23:13:18.307Z,100536.92
2018-12-14T23:16:22.870Z,100531.09
2018-12-14T23:19:27.447Z,100536.55
2018-12-14T23:22:31.981Z,100525.87
2018-12-14T23:25:37.522Z,100528.67
2018-12-14T23:28:42.081Z,100528.06
2018-12-14T23:31:46.798Z,100528.09
2018-12-14T23:34:51.523Z,100524.20
2018-12-14T23:37:56.196Z,100517.23
2018-12-14T23:41:00.794Z,100519.31
2018-12-14T23:44:05.424Z,100519.09
2018-12-14T23:47:10.023Z,100529.01
2018-12-14T23:50:14.591Z,100518.14
2018-12-14T23:53:19.436Z,100517.73
2018-12-14T23:56:24.129Z,100525.60
2018-12-14T23:59:28.729Z,100529.84
